Hauptseite
METAR-TAF:

METAR-TAF

Flughäfen :

Flughafen Alderney

Alderney,

Breite: 49-43N, Länge: 002-12W, Höhe: 71 m

Beobachtung

Neuester Wetterbericht von vor 1 Stunde und 44 Minuten, um 18:20 UTC
Wind 9 kt aus Nord/Nordost
Temperatur 4°C
Luftfeuchtigkeit 81%
Luftdruck 1021 hPa
Sichtweite 10 km oder mehr
Aufgelockert bewölkt in der Höhe von 1800 ft

METAR: EGJA 201820Z 02009KT 9999 SCT018 04/01 Q1021

Zeit: 20:04 (20:04 UTC)

Prognose

Neuester Wetterbericht von vor 6 Stunden und 3 Minuten, um 14:01 UTC
Gültige Prognose vom 20 um 15 UTC bis 20 um 19 UTC
Wind 11 kt aus Nord/Nordost
Sichtweite 10 km oder mehr
Leicht bewölkt in der Höhe von 1400 ft
Aufgelockert bewölkt in der Höhe von 2500 ft

TAF: EGJA 201401Z 2015/2019 02011KT 9999 FEW014 SCT025

Wetterbeobachtungen und Prognosen von mehr als 4000 Flughäfen (METAR und TAF Bericht).

Die verfügbaren Stationen werden durch gelbe und rote Markierungen auf der Karte dargestellt.

Führen Sie die Maus auf sie, um den Namen der Station zu sehen.

Darauf klicken, um die Beobachtung von Wetterbeobachtungen und Prognosen zu sehen.

Um die Karte zu ändern : klicken Sie auf den grünen Tasten mit einem schwarzen Kreuz Zum Vergrößern, auf den grünen Button mit einem Gedankenstrich zu verkleinern, oder auf die grünen Pfeile für benachbarte Karten.


METAR-TAF: